Time;durP1;ratioP1;P1;durP2;ratioP2;P2;SDS_P1;SDS_P2;PMS_P1;PMS_P2;Temp;Humidity;BMP_temperature;BMP_pressure;BME280_temperature;BME280_humidity;BME280_pressure;Samples;Min_cycle;Max_cycle;Signal;HPM_P1;HPM_P2
2021/03/14 00:01:21;;;;;;;1.40;1.30;;;22.50;31.50;;;;;;5007102;28;20515;-64
2021/03/14 00:03:48;;;;;;;1.33;1.23;;;22.50;31.60;;;;;;5007403;28;20470;-65
2021/03/14 00:06:15;;;;;;;1.80;1.70;;;22.50;31.50;;;;;;5007563;28;20104;-65
2021/03/14 00:08:42;;;;;;;1.30;1.20;;;22.50;31.60;;;;;;5006292;28;20045;-66
2021/03/14 00:11:09;;;;;;;1.00;1.00;;;22.50;31.60;;;;;;5006731;28;20308;-65
2021/03/14 00:13:38;;;;;;;1.50;1.40;;;22.50;31.60;;;;;;5008006;28;20081;-65
2021/03/14 00:16:06;;;;;;;1.13;1.10;;;22.50;31.60;;;;;;5007563;28;20232;-65
2021/03/14 00:18:39;;;;;;;2.03;1.65;;;22.50;31.60;;;;;;5007043;28;20289;-65
2021/03/14 00:21:08;;;;;;;1.50;1.40;;;22.50;31.60;;;;;;5007131;28;20050;-65
2021/03/14 00:23:35;;;;;;;2.10;1.80;;;22.50;31.60;;;;;;5007485;28;20080;-65
2021/03/14 00:26:04;;;;;;;1.85;1.30;;;22.50;31.70;;;;;;5007735;28;20132;-65
2021/03/14 00:28:30;;;;;;;1.65;1.55;;;22.50;31.60;;;;;;5007262;28;20069;-65
2021/03/14 00:30:58;;;;;;;1.40;1.30;;;22.50;31.60;;;;;;5007366;28;20050;-65
2021/03/14 00:33:25;;;;;;;1.42;1.30;;;22.50;31.60;;;;;;5007391;28;20073;-65
2021/03/14 00:35:52;;;;;;;1.55;1.45;;;22.50;31.70;;;;;;5006610;28;20045;-65
2021/03/14 00:38:18;;;;;;;1.77;1.52;;;22.50;31.70;;;;;;5007756;28;20046;-65
2021/03/14 00:40:45;;;;;;;1.27;1.20;;;22.50;31.70;;;;;;5006859;28;20081;-65
2021/03/14 00:43:13;;;;;;;1.38;1.27;;;22.50;31.70;;;;;;5007292;28;20085;-65
2021/03/14 00:45:40;;;;;;;1.23;1.13;;;22.50;31.70;;;;;;5006419;28;20570;-66
2021/03/14 00:48:27;;;;;;;1.27;1.17;;;22.50;31.70;;;;;;5007305;28;20072;-65
2021/03/14 00:50:54;;;;;;;1.42;1.33;;;22.50;31.70;;;;;;5007334;28;20046;-66
2021/03/14 00:53:20;;;;;;;1.50;1.33;;;22.50;31.70;;;;;;5007922;28;20046;-66
2021/03/14 00:55:47;;;;;;;1.23;1.17;;;22.40;31.60;;;;;;5010982;28;20660;-65
2021/03/14 00:58:14;;;;;;;1.60;1.50;;;22.40;31.60;;;;;;5010279;28;20487;-65
2021/03/14 01:00:41;;;;;;;1.48;1.38;;;22.50;32.00;;;;;;5010634;28;20475;-66
2021/03/14 01:03:09;;;;;;;1.33;1.23;;;22.50;31.70;;;;;;5010817;28;20054;-65
2021/03/14 01:05:36;;;;;;;1.20;1.10;;;22.40;31.70;;;;;;5010857;28;20049;-65
2021/03/14 01:08:03;;;;;;;1.27;1.20;;;22.40;31.70;;;;;;5011241;28;20222;-65
2021/03/14 01:10:29;;;;;;;1.13;1.13;;;22.50;31.70;;;;;;5010522;28;20077;-67
2021/03/14 01:12:56;;;;;;;1.05;1.02;;;22.40;31.70;;;;;;5010618;28;20050;-66
2021/03/14 01:15:23;;;;;;;1.35;1.25;;;22.40;31.70;;;;;;5010418;28;20149;-65
2021/03/14 01:17:50;;;;;;;1.45;1.35;;;22.40;31.70;;;;;;5010476;28;20558;-65
2021/03/14 01:20:19;;;;;;;1.33;1.20;;;22.40;31.70;;;;;;5010534;28;20085;-65
2021/03/14 01:22:46;;;;;;;2.63;1.40;;;22.40;31.70;;;;;;5009260;28;20557;-65
2021/03/14 01:25:13;;;;;;;1.30;1.20;;;22.40;31.70;;;;;;5009973;28;20077;-65
2021/03/14 01:27:46;;;;;;;1.15;1.10;;;22.40;31.70;;;;;;5010131;28;20081;-65
2021/03/14 01:30:15;;;;;;;0.90;0.90;;;22.40;31.80;;;;;;5009477;28;20042;-65
2021/03/14 01:32:44;;;;;;;1.35;1.27;;;22.40;31.80;;;;;;5009795;28;20042;-65
2021/03/14 01:35:12;;;;;;;1.33;1.23;;;22.40;31.80;;;;;;5009641;28;20387;-65
2021/03/14 01:37:40;;;;;;;1.40;1.30;;;22.40;31.80;;;;;;5009541;28;20054;-66
2021/03/14 01:40:09;;;;;;;1.20;1.10;;;22.40;31.80;;;;;;5010042;28;20290;-65
2021/03/14 01:42:36;;;;;;;1.63;1.52;;;22.40;31.80;;;;;;5009837;28;20077;-65
2021/03/14 01:45:05;;;;;;;1.23;1.20;;;22.40;31.80;;;;;;5010294;28;20133;-65
2021/03/14 01:47:40;;;;;;;1.48;1.25;;;22.40;31.80;;;;;;5009265;28;20594;-65
2021/03/14 01:50:14;;;;;;;1.33;1.23;;;22.40;31.80;;;;;;5009544;28;20562;-67
2021/03/14 01:52:43;;;;;;;1.50;1.40;;;22.40;31.80;;;;;;5010206;28;20049;-65
2021/03/14 01:55:12;;;;;;;1.08;1.08;;;22.40;31.80;;;;;;5009703;28;20092;-65
2021/03/14 01:57:39;;;;;;;2.13;1.50;;;22.40;31.80;;;;;;5009199;28;20050;-65
2021/03/14 02:00:09;;;;;;;1.27;1.17;;;22.40;31.80;;;;;;5008313;28;20295;-65
2021/03/14 02:02:36;;;;;;;1.02;0.93;;;22.40;31.80;;;;;;5009259;28;20054;-64
2021/03/14 02:05:08;;;;;;;0.90;0.90;;;22.40;31.80;;;;;;5009369;28;20716;-66
2021/03/14 02:07:38;;;;;;;1.25;1.23;;;22.40;31.80;;;;;;5009439;28;20475;-65
2021/03/14 02:10:07;;;;;;;1.63;1.52;;;22.40;31.80;;;;;;5009793;28;20050;-65
2021/03/14 02:12:39;;;;;;;1.17;1.17;;;22.40;31.80;;;;;;5008836;28;20116;-65
2021/03/14 02:15:07;;;;;;;1.58;1.30;;;22.40;31.80;;;;;;5008844;28;20334;-65
2021/03/14 02:17:35;;;;;;;1.20;1.08;;;22.40;31.80;;;;;;5008969;28;20080;-65
2021/03/14 02:20:15;;;;;;;1.02;1.02;;;22.40;31.80;;;;;;5009222;28;20042;-65
2021/03/14 02:22:44;;;;;;;1.08;0.98;;;22.40;31.80;;;;;;5009222;28;20077;-67
2021/03/14 02:25:21;;;;;;;1.10;1.10;;;22.40;31.80;;;;;;5008814;28;20471;-65
2021/03/14 02:27:52;;;;;;;1.10;1.10;;;22.40;31.90;;;;;;5009540;28;20133;-65
2021/03/14 02:30:20;;;;;;;1.25;1.10;;;22.40;31.80;;;;;;5008864;28;20073;-65
2021/03/14 02:32:48;;;;;;;1.20;1.10;;;22.40;31.80;;;;;;5009297;28;20115;-64
2021/03/14 02:35:16;;;;;;;1.30;1.20;;;22.40;31.90;;;;;;5009155;28;20056;-65
2021/03/14 02:37:44;;;;;;;0.93;0.93;;;22.30;31.80;;;;;;5008248;28;20054;-65
2021/03/14 02:40:12;;;;;;;1.17;1.08;;;22.30;31.80;;;;;;5008862;28;20710;-66
2021/03/14 02:42:41;;;;;;;1.13;1.05;;;22.30;31.80;;;;;;5008600;28;20239;-65
2021/03/14 02:45:10;;;;;;;1.00;1.00;;;22.30;31.80;;;;;;5009027;28;20411;-65
2021/03/14 02:47:38;;;;;;;1.00;0.90;;;22.40;31.90;;;;;;5008319;28;20073;-64
2021/03/14 02:50:16;;;;;;;1.10;1.00;;;22.30;31.90;;;;;;5008877;28;20050;-66
2021/03/14 02:52:45;;;;;;;1.20;1.10;;;22.40;31.90;;;;;;5008760;28;20434;-65
2021/03/14 02:55:14;;;;;;;1.02;1.02;;;22.30;31.80;;;;;;5008554;28;20100;-65
2021/03/14 02:57:43;;;;;;;1.25;1.08;;;22.30;31.90;;;;;;5007210;28;20073;-65
2021/03/14 03:00:14;;;;;;;0.75;0.75;;;22.30;31.90;;;;;;5008144;28;20060;-65
2021/03/14 03:02:45;;;;;;;0.90;0.88;;;22.30;31.90;;;;;;5008474;28;20112;-64
2021/03/14 03:05:15;;;;;;;1.20;1.20;;;22.30;31.90;;;;;;5008561;28;20140;-65
2021/03/14 03:07:55;;;;;;;1.25;1.08;;;22.30;31.90;;;;;;5008048;28;20096;-66
2021/03/14 03:10:28;;;;;;;1.00;1.00;;;22.30;31.90;;;;;;5008900;28;20081;-66
2021/03/14 03:12:57;;;;;;;1.30;1.20;;;22.30;31.90;;;;;;5008306;28;20541;-65
2021/03/14 03:15:25;;;;;;;1.20;1.20;;;22.30;31.90;;;;;;5007885;28;20096;-66
2021/03/14 03:17:52;;;;;;;1.30;1.20;;;22.30;31.90;;;;;;5007992;28;20143;-65
2021/03/14 03:20:23;;;;;;;;;;;22.30;31.90;;;;;;5008803;28;20046;-65
2021/03/14 03:22:50;;;;;;;1.02;0.98;;;22.30;31.90;;;;;;5008040;28;20344;-65
2021/03/14 03:25:17;;;;;;;1.10;1.00;;;22.30;31.90;;;;;;5008142;28;20581;-65
2021/03/14 03:27:44;;;;;;;1.65;1.17;;;22.30;31.90;;;;;;5007532;28;20054;-65
2021/03/14 03:30:13;;;;;;;0.80;0.80;;;22.30;31.90;;;;;;5006899;28;20463;-66
2021/03/14 03:32:44;;;;;;;1.23;1.13;;;22.30;31.90;;;;;;5008222;28;20050;-65
2021/03/14 03:35:14;;;;;;;1.00;1.00;;;22.30;31.90;;;;;;5022929;28;20042;-67
2021/03/14 03:37:40;;;;;;;0.90;0.90;;;22.30;31.90;;;;;;5007946;28;20377;-65
2021/03/14 03:40:10;;;;;;;1.17;1.10;;;22.30;32.00;;;;;;5007326;28;20593;-65
2021/03/14 03:43:03;;;;;;;1.15;1.05;;;22.30;32.00;;;;;;5007821;28;20046;-65
2021/03/14 03:45:33;;;;;;;0.90;0.90;;;22.30;32.00;;;;;;5007890;28;20078;-65
2021/03/14 03:48:00;;;;;;;1.52;1.15;;;22.30;32.00;;;;;;5007728;28;20388;-65
2021/03/14 03:50:47;;;;;;;1.17;1.10;;;22.20;31.90;;;;;;5007575;28;20076;-65
2021/03/14 03:53:16;;;;;;;1.10;1.10;;;22.30;32.00;;;;;;5008371;28;20069;-65
2021/03/14 03:55:43;;;;;;;0.90;0.90;;;22.30;32.00;;;;;;5007790;28;20053;-65
2021/03/14 03:58:11;;;;;;;0.90;0.90;;;22.30;32.00;;;;;;5007731;28;20144;-65
2021/03/14 04:00:38;;;;;;;0.80;0.80;;;22.30;32.00;;;;;;5007082;28;20481;-65
2021/03/14 04:03:06;;;;;;;1.98;1.02;;;22.30;32.00;;;;;;5007405;28;20113;-65
2021/03/14 04:05:33;;;;;;;1.30;1.20;;;22.30;32.00;;;;;;5007265;28;20507;-66
2021/03/14 04:08:00;;;;;;;1.02;0.95;;;22.30;32.00;;;;;;5007706;28;20269;-65
2021/03/14 04:10:28;;;;;;;1.20;1.10;;;22.30;32.00;;;;;;5007391;28;20101;-65
2021/03/14 04:12:55;;;;;;;1.67;1.17;;;22.30;32.00;;;;;;5007773;28;20050;-65
2021/03/14 04:15:25;;;;;;;1.00;1.00;;;22.30;32.00;;;;;;5007369;28;20042;-65
2021/03/14 04:17:54;;;;;;;0.82;0.82;;;22.20;32.00;;;;;;5006722;28;20095;-65
2021/03/14 04:20:29;;;;;;;0.90;0.90;;;22.30;32.10;;;;;;5006508;28;20050;-64
2021/03/14 04:23:09;;;;;;;0.80;0.80;;;22.20;32.00;;;;;;5007331;28;20054;-65
2021/03/14 04:25:36;;;;;;;;;;;22.30;32.00;;;;;;5007826;28;20133;-65
2021/03/14 04:28:03;;;;;;;1.13;1.10;;;22.20;32.00;;;;;;5009967;28;19921;-66
2021/03/14 04:30:31;;;;;;;1.80;1.20;;;22.20;32.00;;;;;;5010805;28;20104;-65
2021/03/14 04:32:59;;;;;;;0.80;0.80;;;22.20;32.00;;;;;;5010443;28;20652;-65
2021/03/14 04:35:26;;;;;;;1.20;1.10;;;22.20;32.00;;;;;;5010381;28;20518;-65
2021/03/14 04:37:54;;;;;;;1.00;1.00;;;22.20;32.00;;;;;;5011195;28;20050;-65
2021/03/14 04:40:22;;;;;;;0.98;0.80;;;22.20;32.10;;;;;;5010460;28;20041;-65
2021/03/14 04:42:51;;;;;;;1.13;1.02;;;22.20;32.10;;;;;;5011367;28;20100;-64
2021/03/14 04:45:18;;;;;;;0.80;0.80;;;22.20;32.10;;;;;;5011080;28;20081;-65
2021/03/14 04:47:46;;;;;;;1.23;1.10;;;22.20;32.10;;;;;;5010786;28;20474;-66
2021/03/14 04:50:18;;;;;;;0.80;0.80;;;22.20;32.10;;;;;;5010939;28;20045;-66
2021/03/14 04:52:47;;;;;;;1.38;1.05;;;22.20;32.10;;;;;;5010939;28;20046;-65
2021/03/14 04:55:15;;;;;;;0.73;0.73;;;22.20;32.10;;;;;;5010478;28;20101;-65
2021/03/14 04:57:44;;;;;;;1.13;1.02;;;22.20;32.10;;;;;;5010545;28;20053;-65
2021/03/14 05:00:14;;;;;;;0.80;0.80;;;22.10;32.00;;;;;;5010237;28;20054;-65
2021/03/14 05:02:47;;;;;;;1.13;1.02;;;22.20;32.10;;;;;;5010242;28;20054;-66
2021/03/14 05:05:14;;;;;;;1.00;1.00;;;22.10;32.10;;;;;;5010958;28;20049;-68
2021/03/14 05:07:43;;;;;;;0.65;0.65;;;22.10;32.10;;;;;;5010744;28;20068;-65
2021/03/14 05:10:18;;;;;;;0.90;0.90;;;22.10;32.10;;;;;;5010413;28;20050;-66
2021/03/14 05:12:45;;;;;;;1.25;1.00;;;22.10;32.10;;;;;;5013195;28;20046;-66
2021/03/14 05:15:14;;;;;;;1.15;0.93;;;22.20;32.10;;;;;;5014010;28;20652;-65
2021/03/14 05:17:43;;;;;;;1.15;1.10;;;22.10;32.10;;;;;;5026893;28;20045;-65
2021/03/14 05:20:13;;;;;;;1.20;0.90;;;22.10;32.10;;;;;;5013174;28;20065;-65
2021/03/14 05:22:42;;;;;;;1.02;0.93;;;22.10;32.10;;;;;;5013291;28;20096;-65
2021/03/14 05:25:11;;;;;;;0.98;0.98;;;22.10;32.10;;;;;;5013504;28;20054;-65
2021/03/14 05:27:40;;;;;;;1.00;1.00;;;22.10;32.10;;;;;;5015642;28;20073;-66
2021/03/14 05:30:07;;;;;;;0.80;0.80;;;22.10;32.10;;;;;;5012487;28;20214;-65
2021/03/14 05:32:34;;;;;;;0.88;0.88;;;22.10;32.70;;;;;;5010478;28;20116;-65
2021/03/14 05:35:01;;;;;;;1.23;1.10;;;22.10;32.10;;;;;;5009618;28;20083;-68
2021/03/14 05:37:28;;;;;;;1.27;1.10;;;22.10;32.10;;;;;;5009824;28;20053;-68
2021/03/14 05:39:54;;;;;;;0.70;0.70;;;22.20;32.70;;;;;;5009040;28;20042;-68
2021/03/14 05:42:21;;;;;;;1.10;1.05;;;22.20;32.10;;;;;;5009171;28;20053;-66
2021/03/14 05:44:48;;;;;;;0.75;0.75;;;22.20;32.10;;;;;;5010429;28;20104;-64
2021/03/14 05:47:15;;;;;;;0.88;0.88;;;22.20;32.10;;;;;;5009853;28;20061;-66
2021/03/14 05:49:42;;;;;;;0.88;0.88;;;22.20;32.10;;;;;;5009139;28;20136;-64
2021/03/14 05:52:18;;;;;;;0.70;0.70;;;22.20;32.00;;;;;;5010391;28;20072;-65
2021/03/14 05:54:46;;;;;;;0.90;0.90;;;22.20;32.00;;;;;;5009534;28;20050;-65
2021/03/14 05:57:17;;;;;;;0.90;0.90;;;22.20;32.00;;;;;;5009785;28;20084;-65
2021/03/14 05:59:45;;;;;;;;;;;22.30;32.00;;;;;;5009465;28;20049;-65
2021/03/14 06:02:15;;;;;;;0.93;0.90;;;22.30;32.00;;;;;;5008745;28;20635;-65
2021/03/14 06:04:42;;;;;;;;;;;22.20;32.00;;;;;;5010735;28;20038;-65
2021/03/14 06:07:09;;;;;;;1.05;0.95;;;22.30;32.10;;;;;;5009535;28;19921;-65
2021/03/14 06:09:36;;;;;;;1.42;1.33;;;22.30;32.00;;;;;;5009485;28;20058;-65
2021/03/14 06:12:03;;;;;;;1.25;1.23;;;22.30;32.00;;;;;;5009285;28;20045;-66
2021/03/14 06:14:33;;;;;;;1.00;1.00;;;22.30;32.00;;;;;;5009491;28;20133;-65
2021/03/14 06:17:00;;;;;;;1.98;1.20;;;22.30;32.00;;;;;;5009525;28;20298;-65
2021/03/14 06:19:27;;;;;;;1.35;1.25;;;22.30;31.90;;;;;;5008834;28;20050;-65
2021/03/14 06:22:18;;;;;;;1.25;1.15;;;22.40;32.00;;;;;;5008018;28;20053;-66
2021/03/14 06:24:46;;;;;;;1.52;1.38;;;22.40;31.90;;;;;;5008990;28;20423;-65
2021/03/14 06:27:51;;;;;;;1.50;1.40;;;22.40;31.80;;;;;;5009533;28;20555;-65
2021/03/14 06:30:28;;;;;;;1.30;1.20;;;22.40;31.80;;;;;;5009167;28;20061;-66
2021/03/14 06:33:06;;;;;;;1.42;1.33;;;22.50;31.80;;;;;;5008868;28;20506;-64
2021/03/14 06:35:45;;;;;;;1.42;1.33;;;22.50;31.80;;;;;;5009306;28;20092;-65
2021/03/14 06:38:21;;;;;;;1.67;1.58;;;22.60;31.80;;;;;;5008061;28;20644;-65
2021/03/14 06:40:51;;;;;;;2.50;1.60;;;22.60;31.70;;;;;;5008378;28;20184;-65
2021/03/14 06:43:18;;;;;;;1.17;1.17;;;22.70;31.70;;;;;;5008320;28;20046;-65
2021/03/14 06:45:45;;;;;;;1.35;1.25;;;22.70;31.70;;;;;;5008242;28;20070;-66
2021/03/14 06:48:12;;;;;;;1.52;1.40;;;22.70;31.60;;;;;;5008255;28;20264;-65
2021/03/14 06:50:41;;;;;;;2.53;1.27;;;22.80;31.60;;;;;;5007010;28;20374;-66
2021/03/14 06:53:17;;;;;;;1.65;1.40;;;22.90;31.60;;;;;;5008963;28;20081;-65
2021/03/14 06:55:45;;;;;;;1.48;1.30;;;22.90;31.50;;;;;;5008246;28;20561;-65
2021/03/14 06:58:27;;;;;;;1.40;1.30;;;23.00;31.50;;;;;;5007962;28;20108;-65
2021/03/14 07:01:15;;;;;;;1.50;1.40;;;23.10;31.50;;;;;;5007487;28;20499;-66
2021/03/14 07:03:49;;;;;;;1.30;1.20;;;23.10;31.50;;;;;;5007411;28;20053;-64
2021/03/14 07:06:22;;;;;;;2.03;1.83;;;23.20;31.40;;;;;;5009180;28;20096;-66
2021/03/14 07:08:55;;;;;;;1.70;1.40;;;23.20;31.30;;;;;;5008074;28;20050;-66
2021/03/14 07:11:33;;;;;;;1.88;1.75;;;23.30;31.20;;;;;;5008552;28;20088;-65
2021/03/14 07:14:01;;;;;;;1.55;1.40;;;23.40;31.10;;;;;;5007940;28;20486;-66
2021/03/14 07:16:43;;;;;;;2.30;2.10;;;23.40;31.00;;;;;;5008251;28;20140;-65
2021/03/14 07:19:16;;;;;;;1.73;1.63;;;23.50;31.00;;;;;;5007851;28;20315;-65
2021/03/14 07:21:43;;;;;;;1.98;1.88;;;23.60;30.90;;;;;;5008154;28;20133;-65
2021/03/14 07:24:14;;;;;;;2.55;2.20;;;23.60;30.80;;;;;;5008145;28;20120;-66
2021/03/14 07:26:43;;;;;;;4.90;2.33;;;23.80;30.80;;;;;;5006335;28;20132;-65
2021/03/14 07:29:10;;;;;;;2.58;2.28;;;23.80;30.70;;;;;;5008477;28;20049;-65
2021/03/14 07:31:36;;;;;;;3.67;2.30;;;23.90;30.60;;;;;;5007527;28;20045;-65
2021/03/14 07:34:06;;;;;;;2.83;2.38;;;23.90;30.50;;;;;;5008210;28;20053;-66
2021/03/14 07:36:33;;;;;;;2.20;2.00;;;24.00;30.40;;;;;;5007979;28;20125;-65
2021/03/14 07:39:00;;;;;;;3.00;2.30;;;24.10;30.40;;;;;;5007333;28;20065;-65
2021/03/14 07:41:28;;;;;;;2.58;2.38;;;24.10;30.30;;;;;;5007362;28;20089;-63
2021/03/14 07:43:55;;;;;;;3.15;2.83;;;24.20;30.30;;;;;;5007018;28;20482;-65
2021/03/14 07:46:24;;;;;;;3.35;2.75;;;24.20;30.20;;;;;;5008157;28;20564;-66
2021/03/14 07:48:53;;;;;;;2.75;2.50;;;24.30;30.20;;;;;;5007297;28;20061;-66
2021/03/14 07:51:22;;;;;;;3.58;2.80;;;24.30;30.10;;;;;;5007623;28;20085;-66
2021/03/14 07:53:52;;;;;;;3.65;3.28;;;24.30;30.00;;;;;;5008029;28;20084;-66
2021/03/14 07:56:19;;;;;;;;;;;24.40;30.00;;;;;;5007587;28;20057;-66
2021/03/14 07:58:55;;;;;;;4.80;3.22;;;24.40;30.00;;;;;;5007420;28;19928;-64
2021/03/14 08:01:24;;;;;;;3.30;3.00;;;24.40;30.00;;;;;;5007622;28;20116;-65
2021/03/14 08:03:52;;;;;;;5.15;2.80;;;24.40;30.00;;;;;;5013682;28;20053;-66
2021/03/14 08:06:48;;;;;;;2.95;2.65;;;24.40;30.00;;;;;;5014120;28;20042;-66
2021/03/14 08:09:45;;;;;;;4.13;3.10;;;24.40;30.00;;;;;;5013478;28;20057;-65
2021/03/14 08:12:23;;;;;;;3.42;3.00;;;24.50;30.00;;;;;;5014159;28;20046;-65
2021/03/14 08:14:53;;;;;;;4.05;3.08;;;24.50;30.00;;;;;;5012818;28;20123;-65
2021/03/14 08:17:26;;;;;;;2.80;2.50;;;24.50;30.00;;;;;;5014301;28;20097;-66
2021/03/14 08:19:53;;;;;;;3.97;3.00;;;24.50;30.00;;;;;;5013315;28;20050;-65
2021/03/14 08:22:43;;;;;;;3.63;3.00;;;24.50;29.90;;;;;;5013842;28;20564;-65
2021/03/14 08:25:19;;;;;;;;;;;24.60;29.90;;;;;;5014310;28;20053;-65
2021/03/14 08:27:50;;;;;;;3.08;2.58;;;24.60;29.90;;;;;;5014185;28;19976;-66
2021/03/14 08:30:44;;;;;;;2.97;2.78;;;24.60;29.90;;;;;;5013579;28;20111;-66
2021/03/14 08:33:27;;;;;;;2.60;2.40;;;24.60;29.90;;;;;;5025464;28;20109;-66
2021/03/14 08:36:05;;;;;;;2.58;2.30;;;24.60;29.90;;;;;;5013765;28;20053;-66
2021/03/14 08:38:50;;;;;;;2.78;2.45;;;24.70;30.00;;;;;;5013456;28;20081;-65
2021/03/14 08:41:36;;;;;;;3.55;3.17;;;24.60;29.90;;;;;;5013190;28;20474;-65
2021/03/14 08:44:14;;;;;;;2.85;2.47;;;24.70;30.00;;;;;;5013928;28;20136;-66
2021/03/14 08:47:02;;;;;;;3.20;2.60;;;24.70;30.00;;;;;;5013821;28;20718;-65
2021/03/14 08:49:30;;;;;;;2.50;2.30;;;24.70;30.00;;;;;;5026133;28;20061;-65
2021/03/14 08:51:57;;;;;;;3.00;2.50;;;24.70;30.00;;;;;;5013401;28;20054;-65
2021/03/14 08:54:41;;;;;;;3.45;2.75;;;24.70;29.90;;;;;;5013136;28;20053;-65
2021/03/14 08:57:10;;;;;;;4.07;2.70;;;24.70;29.90;;;;;;5012949;28;20291;-66
2021/03/14 08:59:45;;;;;;;2.83;2.40;;;24.80;29.90;;;;;;5012133;28;20464;-68
2021/03/14 09:02:20;;;;;;;2.47;2.28;;;24.80;29.90;;;;;;5013266;28;20050;-66
2021/03/14 09:04:48;;;;;;;2.20;2.00;;;24.80;29.90;;;;;;5013211;28;20141;-66
2021/03/14 09:07:16;;;;;;;3.38;2.33;;;24.80;29.90;;;;;;5012763;28;20045;-66
2021/03/14 09:09:43;;;;;;;2.53;2.33;;;24.80;29.90;;;;;;5012900;28;20459;-66
2021/03/14 09:12:13;;;;;;;3.08;2.50;;;24.80;29.90;;;;;;5013416;28;20109;-67
2021/03/14 09:14:45;;;;;;;3.22;2.80;;;24.80;30.00;;;;;;5010566;28;20049;-66
2021/03/14 09:17:21;;;;;;;4.00;2.40;;;24.80;30.00;;;;;;5010712;28;20125;-65
2021/03/14 09:19:54;;;;;;;3.22;2.55;;;24.70;29.90;;;;;;5010216;28;20049;-66
2021/03/14 09:22:26;;;;;;;2.85;2.38;;;24.80;30.00;;;;;;5010053;28;20329;-65
2021/03/14 09:25:04;;;;;;;3.10;2.72;;;24.80;30.00;;;;;;5008895;28;20054;-66
2021/03/14 09:27:33;;;;;;;1.92;1.83;;;24.80;30.00;;;;;;5010250;28;20491;-66
2021/03/14 09:30:10;;;;;;;3.60;2.50;;;24.80;30.00;;;;;;5009800;28;20041;-66
2021/03/14 09:32:40;;;;;;;3.38;2.25;;;24.80;30.00;;;;;;5009306;28;20589;-65
2021/03/14 09:35:30;;;;;;;2.25;2.05;;;24.80;30.00;;;;;;5025257;28;20061;-66
2021/03/14 09:38:02;;;;;;;;;;;24.80;29.90;;;;;;5025657;28;20049;-65
2021/03/14 09:40:32;;;;;;;2.05;1.52;;;24.80;29.90;;;;;;5010008;28;20151;-65
2021/03/14 09:43:23;;;;;;;2.17;1.98;;;24.80;30.30;;;;;;5024909;28;20389;-66
2021/03/14 09:45:55;;;;;;;3.83;2.20;;;24.80;29.90;;;;;;5009478;28;20493;-65
2021/03/14 09:48:27;;;;;;;2.65;2.13;;;24.80;29.80;;;;;;5009902;28;20136;-65
2021/03/14 09:51:04;;;;;;;1.92;1.60;;;24.80;29.90;;;;;;5009789;28;20494;-64
2021/03/14 09:53:33;;;;;;;2.38;2.00;;;24.80;29.90;;;;;;5009818;28;20073;-65
2021/03/14 09:56:02;;;;;;;1.55;1.45;;;24.80;29.90;;;;;;5009508;28;20046;-65
2021/03/14 09:58:30;;;;;;;1.60;1.35;;;24.80;29.90;;;;;;5009735;28;20137;-66
2021/03/14 10:00:58;;;;;;;2.55;1.98;;;24.80;29.90;;;;;;5008999;28;20084;-66
2021/03/14 10:03:28;;;;;;;2.47;1.90;;;24.70;29.90;;;;;;5010128;28;20510;-66
2021/03/14 10:06:00;;;;;;;1.70;1.60;;;24.70;29.90;;;;;;5008769;28;20042;-65
2021/03/14 10:08:36;;;;;;;2.30;2.10;;;24.70;29.90;;;;;;5009728;28;20105;-66
2021/03/14 10:11:16;;;;;;;3.03;1.70;;;24.70;29.90;;;;;;5009411;28;20046;-65
2021/03/14 10:13:44;;;;;;;1.30;1.20;;;24.70;30.00;;;;;;5009150;28;20108;-65
2021/03/14 10:16:14;;;;;;;1.88;1.60;;;24.70;30.00;;;;;;5008247;28;20347;-64
2021/03/14 10:18:43;;;;;;;1.90;1.48;;;24.60;30.00;;;;;;5007587;28;20077;-65
2021/03/14 10:21:23;;;;;;;2.33;1.73;;;24.70;30.00;;;;;;5009130;28;20285;-65
2021/03/14 10:23:51;;;;;;;1.42;1.33;;;24.70;30.00;;;;;;5007865;28;20046;-66
2021/03/14 10:26:18;;;;;;;1.50;1.40;;;24.60;30.00;;;;;;5009149;28;20046;-65
2021/03/14 10:28:47;;;;;;;1.33;1.23;;;24.60;30.00;;;;;;5009049;28;20096;-65
2021/03/14 10:31:15;;;;;;;1.30;1.20;;;24.60;30.00;;;;;;5008929;28;20042;-66
2021/03/14 10:33:44;;;;;;;1.30;1.20;;;24.60;30.00;;;;;;5009016;28;20600;-66
2021/03/14 10:36:16;;;;;;;0.85;0.85;;;24.70;30.00;;;;;;5008793;28;20074;-66
2021/03/14 10:38:46;;;;;;;1.23;1.10;;;24.60;30.00;;;;;;5008724;28;20053;-66
2021/03/14 10:41:19;;;;;;;1.38;1.38;;;24.70;30.00;;;;;;5008602;28;20041;-66
2021/03/14 10:43:53;;;;;;;1.67;1.20;;;24.70;30.00;;;;;;5008956;28;20077;-66
2021/03/14 10:46:40;;;;;;;1.42;1.33;;;24.70;29.90;;;;;;5008551;28;20046;-65
2021/03/14 10:49:10;;;;;;;1.40;1.30;;;24.80;30.30;;;;;;5008948;28;20174;-65
2021/03/14 10:51:39;;;;;;;1.52;1.40;;;24.80;29.90;;;;;;5008370;28;20587;-65
2021/03/14 10:54:11;;;;;;;1.00;1.00;;;24.80;29.80;;;;;;5008874;28;20529;-65
2021/03/14 10:56:45;;;;;;;1.20;1.10;;;24.80;29.80;;;;;;5008588;28;20046;-65
2021/03/14 10:59:32;;;;;;;1.05;1.00;;;24.80;29.90;;;;;;5008705;28;20171;-65
2021/03/14 11:02:15;;;;;;;1.20;1.10;;;24.80;29.90;;;;;;5007680;28;20100;-65
2021/03/14 11:04:55;;;;;;;0.90;0.70;;;24.80;29.90;;;;;;5008287;28;20053;-65
2021/03/14 11:07:25;;;;;;;1.58;1.20;;;24.80;29.90;;;;;;5008354;28;20562;-65
2021/03/14 11:10:05;;;;;;;0.70;0.70;;;24.70;29.90;;;;;;5008779;28;20081;-65
2021/03/14 11:12:33;;;;;;;0.70;0.70;;;24.80;29.90;;;;;;5007956;28;20276;-65
2021/03/14 11:15:32;;;;;;;1.02;1.00;;;24.70;29.90;;;;;;5008298;28;20042;-65
2021/03/14 11:18:04;;;;;;;0.80;0.80;;;24.80;29.90;;;;;;5008730;28;20073;-65
2021/03/14 11:20:34;;;;;;;0.73;0.73;;;24.80;29.90;;;;;;5007701;28;20060;-65
2021/03/14 11:23:01;;;;;;;1.40;0.82;;;24.80;29.80;;;;;;5008301;28;20045;-65
2021/03/14 11:25:28;;;;;;;1.25;0.80;;;24.80;29.80;;;;;;5007527;28;20574;-65
2021/03/14 11:27:58;;;;;;;1.20;1.10;;;24.80;29.80;;;;;;5007204;28;20092;-65
2021/03/14 11:30:26;;;;;;;0.83;0.83;;;24.80;29.80;;;;;;5008436;28;20267;-65
2021/03/14 11:32:53;;;;;;;0.40;0.40;;;24.80;29.80;;;;;;5007036;28;20141;-65
2021/03/14 11:35:20;;;;;;;0.90;0.90;;;24.80;29.90;;;;;;5007757;28;20045;-64
2021/03/14 11:37:46;;;;;;;0.50;0.50;;;24.80;29.80;;;;;;5006324;28;20100;-65
2021/03/14 11:40:13;;;;;;;0.70;0.70;;;24.80;29.80;;;;;;5007767;28;20269;-65
2021/03/14 11:42:40;;;;;;;0.60;0.60;;;24.80;29.90;;;;;;5008156;28;20100;-65
2021/03/14 11:45:07;;;;;;;0.82;0.82;;;24.80;29.90;;;;;;5008093;28;20200;-65
2021/03/14 11:47:34;;;;;;;0.65;0.50;;;24.70;29.80;;;;;;5008290;28;20568;-64
2021/03/14 11:50:03;;;;;;;0.85;0.85;;;24.80;29.90;;;;;;5007528;28;20081;-64
2021/03/14 11:52:30;;;;;;;0.60;0.60;;;24.80;29.90;;;;;;5007329;28;20495;-65
2021/03/14 11:54:57;;;;;;;1.25;0.90;;;24.70;29.90;;;;;;5008017;28;20141;-65
2021/03/14 11:57:25;;;;;;;0.68;0.50;;;24.70;29.90;;;;;;5007513;28;20505;-64
2021/03/14 11:59:51;;;;;;;0.50;0.50;;;24.70;30.00;;;;;;5007087;28;20089;-65
2021/03/14 12:02:18;;;;;;;0.43;0.43;;;24.70;30.00;;;;;;5007838;28;20132;-64
2021/03/14 12:04:45;;;;;;;0.63;0.63;;;24.70;30.00;;;;;;5006685;28;20060;-65
2021/03/14 12:07:12;;;;;;;0.80;0.80;;;24.70;30.00;;;;;;5022653;28;20073;-65
2021/03/14 12:09:38;;;;;;;1.05;0.63;;;24.70;30.00;;;;;;5007317;28;20137;-66
2021/03/14 12:12:05;;;;;;;0.40;0.38;;;24.70;30.00;;;;;;5007531;28;20085;-65
2021/03/14 12:14:32;;;;;;;0.60;0.60;;;24.70;30.00;;;;;;5007322;28;20057;-65
2021/03/14 12:16:59;;;;;;;0.60;0.60;;;24.70;30.00;;;;;;5007047;28;20089;-65
2021/03/14 12:19:26;;;;;;;0.65;0.60;;;24.70;30.00;;;;;;5007729;28;20100;-65
2021/03/14 12:21:53;;;;;;;0.50;0.50;;;24.70;30.00;;;;;;5006904;28;20042;-65
2021/03/14 12:24:20;;;;;;;0.50;0.50;;;24.70;30.00;;;;;;5007826;28;20390;-65
2021/03/14 12:26:47;;;;;;;0.43;0.43;;;24.70;30.00;;;;;;5007563;28;20053;-65
2021/03/14 12:29:14;;;;;;;0.30;0.30;;;24.70;30.00;;;;;;5007714;28;20145;-65
2021/03/14 12:31:40;;;;;;;0.60;0.60;;;24.70;30.00;;;;;;5007265;28;20069;-65
2021/03/14 12:34:07;;;;;;;0.30;0.30;;;24.60;30.00;;;;;;5007412;28;20042;-65
2021/03/14 12:36:34;;;;;;;0.28;0.25;;;24.60;30.00;;;;;;5006504;28;20128;-68
2021/03/14 12:39:00;;;;;;;0.60;0.57;;;24.60;30.00;;;;;;5006589;28;20133;-65
2021/03/14 12:41:27;;;;;;;0.40;0.40;;;24.60;30.00;;;;;;5007268;28;20042;-65
2021/03/14 12:43:54;;;;;;;0.40;0.40;;;24.60;30.10;;;;;;5006352;28;20081;-65
2021/03/14 12:46:20;;;;;;;0.40;0.40;;;24.60;30.10;;;;;;5006423;28;20682;-65
2021/03/14 12:48:47;;;;;;;0.30;0.30;;;24.60;30.10;;;;;;5002953;28;20124;-66
2021/03/14 12:51:14;;;;;;;0.38;0.38;;;24.60;30.10;;;;;;5009453;28;20117;-66
2021/03/14 12:53:40;;;;;;;0.20;0.20;;;24.60;30.10;;;;;;5008945;28;20262;-65
2021/03/14 12:56:07;;;;;;;0.30;0.30;;;24.60;30.10;;;;;;5009029;28;20160;-65
2021/03/14 12:58:33;;;;;;;0.50;0.40;;;24.60;30.10;;;;;;5010137;28;20474;-65
2021/03/14 13:01:00;;;;;;;0.30;0.30;;;24.60;30.10;;;;;;5011014;28;20050;-66
2021/03/14 13:03:27;;;;;;;0.20;0.20;;;24.60;30.10;;;;;;5010313;28;20446;-65
2021/03/14 13:05:53;;;;;;;0.30;0.25;;;24.60;30.30;;;;;;5010228;28;20116;-66